createdAt,value
2023-02-13T00:03:22.862Z,20.42
2023-02-13T00:08:24.633Z,18.13
2023-02-13T00:13:26.385Z,19.20
2023-02-13T00:18:30.490Z,19.88
2023-02-13T00:23:33.529Z,18.30
2023-02-13T00:28:35.673Z,18.23
2023-02-13T00:33:37.920Z,19.85
2023-02-13T00:38:41.272Z,20.85
2023-02-13T00:43:44.272Z,17.00
2023-02-13T00:48:46.398Z,20.80
2023-02-13T00:53:48.124Z,20.13
2023-02-13T00:58:49.840Z,19.25
2023-02-13T01:03:51.537Z,22.27
2023-02-13T01:08:53.253Z,20.73
2023-02-13T01:13:55.012Z,21.17
2023-02-13T01:18:56.848Z,19.33
2023-02-13T01:23:58.686Z,20.02
2023-02-13T01:29:00.847Z,20.85
2023-02-13T01:34:02.597Z,20.80
2023-02-13T01:39:04.328Z,19.15
2023-02-13T01:44:43.736Z,19.48
2023-02-13T01:49:46.652Z,21.50
2023-02-13T01:54:48.458Z,21.70
2023-02-13T01:59:57.130Z,20.90
2023-02-13T02:04:59.150Z,19.77
2023-02-13T02:10:04.749Z,22.25
2023-02-13T02:15:07.677Z,22.65
2023-02-13T02:20:15.583Z,20.80
2023-02-13T02:25:35.852Z,21.65
2023-02-13T02:30:52.694Z,20.90
2023-02-13T02:36:20.715Z,21.15
2023-02-13T02:41:42.664Z,20.77
2023-02-13T02:47:26.600Z,20.08
2023-02-13T02:52:48.490Z,20.42
2023-02-13T02:58:42.187Z,22.58
2023-02-13T03:04:03.217Z,21.38
2023-02-13T03:09:29.556Z,21.27
2023-02-13T03:14:31.295Z,19.27
2023-02-13T03:20:12.925Z,19.95
2023-02-13T03:25:36.112Z,17.92
2023-02-13T03:31:00.008Z,20.08
2023-02-13T03:36:41.129Z,16.23
2023-02-13T03:41:50.557Z,14.60
2023-02-13T03:46:55.386Z,14.20
2023-02-13T03:52:03.520Z,12.25
2023-02-13T03:57:24.464Z,10.98
2023-02-13T04:02:32.881Z,10.88
2023-02-13T04:07:35.575Z,10.20
2023-02-13T04:13:05.752Z,8.93
2023-02-13T04:18:22.313Z,16.77
2023-02-13T04:23:24.000Z,9.23
2023-02-13T04:28:25.914Z,9.23
2023-02-13T04:33:27.655Z,9.48
2023-02-13T04:38:29.408Z,10.07
2023-02-13T04:43:31.142Z,8.32
2023-02-13T04:48:32.872Z,8.85
2023-02-13T04:53:34.576Z,8.95
2023-02-13T04:58:36.347Z,8.60
2023-02-13T05:03:38.110Z,12.68
2023-02-13T05:08:39.955Z,10.32
2023-02-13T05:13:41.706Z,9.63
2023-02-13T05:18:43.531Z,9.60
2023-02-13T05:23:45.278Z,9.07
2023-02-13T05:29:05.429Z,8.85
2023-02-13T05:34:07.353Z,8.90
2023-02-13T05:39:09.370Z,10.57
2023-02-13T05:44:12.145Z,9.63
2023-02-13T05:49:15.153Z,8.07
2023-02-13T05:54:16.989Z,8.48
2023-02-13T05:59:18.761Z,11.38
2023-02-13T06:04:20.512Z,9.98
2023-02-13T06:09:22.287Z,10.30
2023-02-13T06:14:25.375Z,9.85
2023-02-13T06:19:27.162Z,11.85
2023-02-13T06:24:28.938Z,10.85
2023-02-13T06:29:32.902Z,9.98
2023-02-13T06:34:34.605Z,9.52
2023-02-13T06:39:36.303Z,11.30
2023-02-13T06:44:38.074Z,12.25
2023-02-13T06:49:39.837Z,11.38
2023-02-13T06:54:47.791Z,13.82
2023-02-13T06:59:49.901Z,9.85
2023-02-13T07:04:51.612Z,10.65
2023-02-13T07:09:53.502Z,9.93
2023-02-13T07:14:55.258Z,8.98
2023-02-13T07:19:58.200Z,8.55
2023-02-13T07:25:00.961Z,9.05
2023-02-13T07:30:02.650Z,11.13
2023-02-13T07:35:04.600Z,9.40
2023-02-13T07:40:07.263Z,12.10
2023-02-13T07:45:09.444Z,9.30
2023-02-13T07:50:12.014Z,8.13
2023-02-13T07:55:13.682Z,9.15
2023-02-13T08:00:16.191Z,9.63
2023-02-13T08:05:18.168Z,9.00
2023-02-13T08:10:38.792Z,7.65
2023-02-13T08:15:41.014Z,8.48
2023-02-13T08:20:42.948Z,8.60
2023-02-13T08:25:44.702Z,10.65
2023-02-13T08:30:46.540Z,8.18
2023-02-13T08:35:48.562Z,8.98
2023-02-13T08:40:50.264Z,7.97
2023-02-13T08:45:53.482Z,8.68
2023-02-13T08:50:55.358Z,8.43
2023-02-13T08:55:58.415Z,10.15
2023-02-13T09:01:00.514Z,9.52
2023-02-13T09:06:02.772Z,7.80
2023-02-13T09:11:07.268Z,10.20
2023-02-13T09:16:10.713Z,9.35
2023-02-13T09:21:15.153Z,10.50
2023-02-13T09:26:19.688Z,11.63
2023-02-13T09:31:24.355Z,9.35
2023-02-13T09:36:26.414Z,9.40
2023-02-13T09:41:44.212Z,9.25
2023-02-13T09:46:46.775Z,8.77
2023-02-13T09:51:55.932Z,10.68
2023-02-13T09:57:27.604Z,9.65
2023-02-13T10:02:52.346Z,7.88
2023-02-13T10:08:18.365Z,11.30
2023-02-13T10:13:49.326Z,10.73
2023-02-13T10:19:00.498Z,10.80
2023-02-13T10:24:20.567Z,9.07
2023-02-13T10:29:50.191Z,7.90
2023-02-13T10:34:54.959Z,8.95
2023-02-13T10:39:56.845Z,9.35
2023-02-13T10:45:03.323Z,7.63
2023-02-13T10:50:29.737Z,5.30
2023-02-13T10:55:42.466Z,6.72
2023-02-13T11:00:53.048Z,7.55
2023-02-13T11:05:57.392Z,4.30
2023-02-13T11:10:59.853Z,3.75
2023-02-13T11:16:13.965Z,3.83
2023-02-13T11:21:34.380Z,4.47
2023-02-13T11:26:39.025Z,5.10
2023-02-13T11:31:40.856Z,4.22
2023-02-13T11:36:42.743Z,6.55
2023-02-13T11:41:46.074Z,4.80
2023-02-13T11:46:50.186Z,4.70
2023-02-13T11:51:54.854Z,6.68
2023-02-13T11:57:04.324Z,5.07
2023-02-13T12:02:29.137Z,5.65
2023-02-13T12:07:32.994Z,6.00
2023-02-13T12:12:40.704Z,3.70
2023-02-13T12:17:45.373Z,6.50
2023-02-13T12:23:22.116Z,3.15
2023-02-13T12:28:44.673Z,4.50
2023-02-13T12:34:17.736Z,6.95
2023-02-13T12:39:34.586Z,5.32
2023-02-13T12:44:56.243Z,4.13
2023-02-13T12:50:30.839Z,4.13
2023-02-13T12:55:47.310Z,4.95
2023-02-13T13:01:25.600Z,7.82
2023-02-13T13:06:54.585Z,5.05
2023-02-13T13:12:14.487Z,6.68
2023-02-13T13:17:38.840Z,5.47
2023-02-13T13:22:53.602Z,6.07
2023-02-13T13:28:04.676Z,5.80
2023-02-13T13:33:19.157Z,7.45
2023-02-13T13:38:42.679Z,5.57
2023-02-13T13:44:06.313Z,5.47
2023-02-13T13:49:36.098Z,6.13
2023-02-13T13:54:37.797Z,6.00
2023-02-13T13:59:55.540Z,7.18
2023-02-13T14:05:04.012Z,8.82
2023-02-13T14:10:07.245Z,7.45
2023-02-13T14:15:35.091Z,5.95
2023-02-13T14:20:56.753Z,9.27
2023-02-13T14:26:17.273Z,8.45
2023-02-13T14:31:25.436Z,9.60
2023-02-13T14:36:34.401Z,11.20
2023-02-13T14:41:51.820Z,11.27
2023-02-13T14:46:56.284Z,10.02
2023-02-13T14:52:06.280Z,8.23
2023-02-13T14:57:23.150Z,12.70
2023-02-13T15:02:28.747Z,9.48
2023-02-13T15:07:36.963Z,10.70
2023-02-13T15:12:38.958Z,10.27
2023-02-13T15:17:41.225Z,9.98
2023-02-13T15:22:47.069Z,10.48
2023-02-13T15:27:54.501Z,9.48
2023-02-13T15:33:00.564Z,8.73
2023-02-13T15:38:28.627Z,8.45
2023-02-13T15:43:39.393Z,9.10
2023-02-13T15:48:41.247Z,8.02
2023-02-13T15:54:04.079Z,12.85
2023-02-13T15:59:06.146Z,10.13
2023-02-13T16:04:12.407Z,12.43
2023-02-13T16:09:35.204Z,9.15
2023-02-13T16:14:51.171Z,8.57
2023-02-13T16:19:57.736Z,10.30
2023-02-13T16:25:24.640Z,8.88
2023-02-13T16:31:00.259Z,10.65
2023-02-13T16:36:11.508Z,9.93
2023-02-13T16:41:31.134Z,12.40
2023-02-13T16:46:40.710Z,13.05
2023-02-13T16:52:23.291Z,11.50
2023-02-13T16:57:33.718Z,10.60
2023-02-13T17:02:38.437Z,11.18
2023-02-13T17:07:43.688Z,10.07
2023-02-13T17:12:46.561Z,11.07
2023-02-13T17:17:53.856Z,9.70
2023-02-13T17:23:01.134Z,8.77
2023-02-13T17:28:18.766Z,10.80
2023-02-13T17:33:27.519Z,9.85
2023-02-13T17:38:29.281Z,8.70
2023-02-13T17:43:31.198Z,11.40
2023-02-13T17:48:32.908Z,11.77
2023-02-13T17:53:35.468Z,11.98
2023-02-13T17:58:37.173Z,10.63
2023-02-13T18:03:40.319Z,11.45
2023-02-13T18:08:42.330Z,10.05
2023-02-13T18:13:48.014Z,10.43
2023-02-13T18:18:50.161Z,10.65
2023-02-13T18:23:53.660Z,11.25
2023-02-13T18:28:55.335Z,10.77
2023-02-13T18:33:57.104Z,14.38
2023-02-13T18:38:58.847Z,13.27
2023-02-13T18:44:00.538Z,15.70
2023-02-13T18:49:03.046Z,14.02
2023-02-13T18:54:06.040Z,15.48
2023-02-13T18:59:07.804Z,16.15
2023-02-13T19:04:10.749Z,13.57
2023-02-13T19:09:13.233Z,13.38
2023-02-13T19:14:16.007Z,14.55
2023-02-13T19:19:17.752Z,12.50
2023-02-13T19:24:19.831Z,14.07
2023-02-13T19:29:21.778Z,15.50
2023-02-13T19:34:23.495Z,14.43
2023-02-13T19:39:25.210Z,15.13
2023-02-13T19:44:26.855Z,13.15
2023-02-13T19:49:31.917Z,16.08
2023-02-13T19:54:34.047Z,17.70
2023-02-13T19:59:35.800Z,16.27
2023-02-13T20:04:39.193Z,18.77
2023-02-13T20:09:41.132Z,18.98
2023-02-13T20:14:43.000Z,20.42
2023-02-13T20:19:44.790Z,21.00
2023-02-13T20:24:47.235Z,20.58
2023-02-13T20:29:48.981Z,22.25
2023-02-13T20:34:59.516Z,23.17
2023-02-13T20:40:01.877Z,21.92
2023-02-13T20:45:04.619Z,23.08
2023-02-13T20:50:06.895Z,22.58
2023-02-13T20:55:08.807Z,24.63
2023-02-13T21:00:13.170Z,27.73
2023-02-13T21:05:14.989Z,26.52
2023-02-13T21:10:17.968Z,29.35
2023-02-13T21:15:19.743Z,22.75
2023-02-13T21:20:21.493Z,24.67
2023-02-13T21:25:23.396Z,23.88
2023-02-13T21:30:25.257Z,23.30
2023-02-13T21:35:26.975Z,22.58
2023-02-13T21:40:28.750Z,23.23
2023-02-13T21:45:30.577Z,22.52
2023-02-13T21:50:32.394Z,22.05
2023-02-13T21:55:34.269Z,20.30
2023-02-13T22:00:36.058Z,21.10
2023-02-13T22:05:37.754Z,20.05
2023-02-13T22:10:39.896Z,18.27
2023-02-13T22:15:41.633Z,20.27
2023-02-13T22:20:43.559Z,17.63
2023-02-13T22:25:49.301Z,19.70
2023-02-13T22:30:51.220Z,20.25
2023-02-13T22:35:53.063Z,20.23
2023-02-13T22:40:54.828Z,20.55
2023-02-13T22:46:02.376Z,20.27
2023-02-13T22:51:06.553Z,20.73
2023-02-13T22:56:10.040Z,21.05
2023-02-13T23:01:14.553Z,19.60
2023-02-13T23:06:16.766Z,17.70
2023-02-13T23:11:37.976Z,20.58
2023-02-13T23:16:59.863Z,18.75
2023-02-13T23:22:01.793Z,19.70
2023-02-13T23:27:03.532Z,17.65
2023-02-13T23:32:05.471Z,21.35
2023-02-13T23:37:07.223Z,20.60
2023-02-13T23:42:09.115Z,21.67
2023-02-13T23:47:10.937Z,23.02
2023-02-13T23:52:12.656Z,21.35
2023-02-13T23:57:14.726Z,23.90
